createdAt,value
2017-11-04T04:44:38.922Z,56.13
2017-11-04T04:47:05.717Z,59.50
2017-11-04T04:49:32.536Z,69.93
2017-11-04T04:51:59.358Z,61.93
2017-11-04T04:54:26.123Z,66.23
2017-11-04T04:56:52.886Z,69.90
2017-11-04T04:59:19.666Z,61.50
2017-11-04T05:01:46.476Z,68.73
2017-11-04T05:04:13.251Z,64.90
2017-11-04T05:06:40.059Z,66.97
2017-11-04T05:09:06.854Z,66.97
2017-11-04T05:11:33.608Z,68.43
2017-11-04T05:14:00.413Z,56.63
2017-11-04T05:16:27.166Z,61.03
2017-11-04T05:18:53.933Z,58.90
2017-11-04T05:21:20.729Z,65.37
2017-11-04T05:23:47.501Z,70.50
2017-11-04T05:26:14.255Z,72.47
2017-11-04T05:28:41.087Z,61.37
2017-11-04T05:31:07.845Z,63.20
2017-11-04T05:33:34.654Z,67.40
2017-11-04T05:36:01.495Z,56.40
2017-11-04T05:38:28.257Z,62.57
2017-11-04T05:40:55.031Z,62.57
2017-11-04T05:43:21.896Z,65.67
2017-11-04T05:45:48.666Z,57.13
2017-11-04T05:48:15.451Z,64.53
2017-11-04T05:50:42.274Z,54.93
2017-11-04T05:53:09.049Z,55.57
2017-11-04T05:55:35.851Z,64.93
2017-11-04T05:58:02.687Z,54.13
2017-11-04T06:00:29.446Z,62.00
2017-11-04T06:02:56.212Z,60.53
2017-11-04T06:05:23.033Z,71.60
2017-11-04T06:07:49.789Z,60.17
2017-11-04T06:10:16.577Z,71.33
2017-11-04T06:12:43.399Z,60.37
2017-11-04T06:15:10.159Z,61.40
2017-11-04T06:17:36.977Z,75.70
2017-11-04T06:20:03.793Z,70.13
2017-11-04T06:22:30.583Z,63.10
2017-11-04T06:24:57.354Z,74.33
2017-11-04T06:27:24.155Z,74.37
2017-11-04T06:29:50.929Z,69.33
2017-11-04T06:32:17.744Z,69.67
2017-11-04T06:34:44.585Z,72.57
2017-11-04T06:37:11.358Z,62.00
2017-11-04T06:39:38.110Z,77.60
2017-11-04T06:42:04.911Z,66.20
2017-11-04T06:44:31.684Z,64.10
2017-11-04T06:46:58.441Z,76.70
2017-11-04T06:49:25.299Z,74.03
2017-11-04T06:51:52.080Z,87.20
2017-11-04T06:54:18.844Z,71.10
2017-11-04T06:56:45.660Z,75.23
2017-11-04T06:59:12.425Z,65.73
2017-11-04T07:01:39.180Z,63.60
2017-11-04T07:04:05.998Z,73.37
2017-11-04T07:06:32.778Z,68.03
2017-11-04T07:08:59.564Z,72.47
2017-11-04T07:11:26.416Z,58.80
2017-11-04T07:13:53.177Z,63.47
2017-11-04T07:16:19.979Z,65.03
2017-11-04T07:18:46.827Z,54.50
2017-11-04T07:21:13.588Z,63.77
2017-11-04T07:23:40.343Z,61.83
2017-11-04T07:26:07.162Z,71.07
2017-11-04T07:28:33.968Z,64.23
2017-11-04T07:31:00.835Z,66.57
2017-11-04T07:33:27.642Z,59.33
2017-11-04T07:35:54.395Z,61.90
2017-11-04T07:38:21.156Z,67.07
2017-11-04T07:40:47.995Z,64.77
2017-11-04T07:43:14.768Z,74.33
2017-11-04T07:45:41.706Z,70.67
2017-11-04T07:48:08.567Z,57.83
2017-11-04T07:50:35.367Z,54.27
2017-11-04T07:53:02.266Z,59.97
2017-11-04T07:55:29.081Z,60.13
2017-11-04T07:57:55.884Z,61.20
2017-11-04T08:00:22.659Z,59.93
2017-11-04T08:02:49.489Z,65.73
2017-11-04T08:05:16.239Z,67.60
2017-11-04T08:07:43.009Z,55.57
2017-11-04T08:10:09.816Z,62.23
2017-11-04T08:12:36.629Z,61.90
2017-11-04T08:15:03.430Z,60.70
2017-11-04T08:17:30.247Z,67.13
2017-11-04T08:19:57.054Z,61.20
2017-11-04T08:22:23.838Z,68.53
2017-11-04T08:24:50.669Z,60.30
2017-11-04T08:27:17.445Z,60.90
2017-11-04T08:29:44.608Z,62.43
2017-11-04T08:32:11.710Z,54.33
2017-11-04T08:34:38.726Z,60.57
2017-11-04T08:37:05.843Z,61.63
2017-11-04T08:39:32.750Z,56.70
2017-11-04T08:41:59.766Z,60.47
2017-11-04T08:44:26.581Z,63.50
2017-11-04T08:46:53.686Z,60.30
2017-11-04T08:49:20.702Z,67.37
2017-11-04T08:51:47.516Z,65.93
2017-11-04T08:54:14.353Z,60.30
2017-11-04T08:56:41.103Z,53.83
2017-11-04T08:59:07.897Z,66.40
2017-11-04T09:01:34.705Z,67.53
2017-11-04T09:04:01.517Z,67.27
2017-11-04T09:06:28.261Z,69.53
2017-11-04T09:08:55.067Z,59.40
2017-11-04T09:11:21.823Z,64.27
2017-11-04T09:13:48.593Z,66.43
2017-11-04T09:16:15.393Z,75.47
2017-11-04T09:18:42.163Z,67.67
2017-11-04T09:21:08.929Z,67.63
2017-11-04T09:23:35.737Z,67.60
2017-11-04T09:26:02.511Z,69.93
2017-11-04T09:28:29.275Z,68.40
2017-11-04T09:30:56.145Z,72.07
2017-11-04T09:33:22.995Z,70.87
2017-11-04T09:35:49.776Z,64.63
2017-11-04T09:38:16.619Z,75.63
2017-11-04T09:40:43.454Z,66.37
2017-11-04T09:43:11.100Z,77.57
2017-11-04T09:45:38.345Z,70.33
2017-11-04T09:48:05.413Z,58.30
2017-11-04T09:50:32.982Z,66.20
2017-11-04T09:52:59.805Z,65.57
2017-11-04T09:55:26.563Z,58.53
2017-11-04T09:57:53.408Z,55.47
2017-11-04T10:00:20.255Z,65.73
2017-11-04T10:02:47.047Z,57.83
2017-11-04T10:05:13.803Z,61.83
2017-11-04T10:07:40.627Z,55.10
2017-11-04T10:10:07.562Z,53.23
2017-11-04T10:12:34.327Z,59.30
2017-11-04T10:15:01.259Z,59.43
2017-11-04T10:17:28.147Z,60.43
2017-11-04T10:19:55.039Z,46.30
2017-11-04T10:22:23.167Z,66.67
2017-11-04T10:24:50.005Z,56.67
2017-11-04T10:27:16.776Z,51.87
2017-11-04T10:29:44.531Z,47.10
2017-11-04T10:32:13.136Z,54.30
2017-11-04T10:34:42.693Z,47.07
2017-11-04T10:37:10.262Z,53.30
2017-11-04T10:39:37.055Z,47.97
2017-11-04T10:42:03.815Z,44.70
2017-11-04T10:44:30.621Z,51.60
2017-11-04T10:46:57.376Z,50.30
2017-11-04T10:49:24.539Z,57.70
2017-11-04T10:51:51.375Z,48.97
2017-11-04T10:54:20.123Z,46.33
2017-11-04T10:56:46.905Z,46.53
2017-11-04T10:59:13.806Z,47.30
2017-11-04T11:01:41.290Z,47.77
2017-11-04T11:04:08.175Z,46.13
2017-11-04T11:06:35.012Z,46.20
2017-11-04T11:09:02.040Z,46.77
2017-11-04T11:11:29.015Z,55.40
2017-11-04T11:13:55.829Z,47.70
2017-11-04T11:16:23.572Z,44.00
2017-11-04T11:18:51.942Z,49.97
2017-11-04T11:21:18.763Z,41.20
2017-11-04T11:23:45.554Z,48.93
2017-11-04T11:26:13.015Z,45.87
2017-11-04T11:28:39.830Z,50.90
2017-11-04T11:31:08.686Z,49.63
2017-11-04T11:33:35.501Z,43.70
2017-11-04T11:36:07.405Z,42.50
2017-11-04T11:38:34.197Z,49.53
2017-11-04T11:41:02.522Z,41.37
2017-11-04T11:43:33.651Z,44.27
2017-11-04T11:46:00.667Z,40.37
2017-11-04T11:48:31.027Z,48.70
2017-11-04T11:51:08.401Z,43.27
2017-11-04T11:53:36.141Z,42.57
2017-11-04T11:56:02.931Z,39.57
2017-11-04T11:58:29.804Z,42.10
2017-11-04T12:00:56.743Z,40.57
2017-11-04T12:03:23.538Z,42.90
2017-11-04T12:05:50.293Z,38.47
2017-11-04T12:08:17.309Z,45.30
2017-11-04T12:10:44.111Z,44.13
2017-11-04T12:13:10.887Z,44.57
2017-11-04T12:15:39.613Z,40.60
2017-11-04T12:18:07.643Z,53.50
2017-11-04T12:20:34.397Z,46.10
2017-11-04T12:23:01.200Z,37.47
2017-11-04T12:25:27.990Z,43.07
2017-11-04T12:27:54.735Z,44.80
2017-11-04T12:30:21.589Z,41.63
2017-11-04T12:32:48.360Z,38.63
2017-11-04T12:35:26.572Z,48.00
2017-11-04T12:37:53.341Z,43.80
2017-11-04T12:40:20.099Z,40.90
2017-11-04T12:42:47.247Z,39.30
2017-11-04T12:45:13.988Z,41.67
2017-11-04T12:47:40.757Z,43.37
2017-11-04T12:50:07.614Z,39.47
2017-11-04T12:52:34.516Z,44.17
2017-11-04T12:55:01.624Z,43.43
2017-11-04T12:57:28.644Z,44.40
2017-11-04T12:59:55.524Z,39.77
2017-11-04T13:02:23.184Z,45.10
2017-11-04T13:04:49.992Z,41.80
2017-11-04T13:07:16.759Z,40.70
2017-11-04T13:09:43.587Z,46.80
2017-11-04T13:12:10.414Z,43.60
2017-11-04T13:14:48.801Z,42.93
2017-11-04T13:17:15.633Z,45.43
2017-11-04T13:19:42.441Z,39.40
2017-11-04T13:22:10.563Z,40.30
2017-11-04T13:24:38.574Z,42.57
2017-11-04T13:27:05.742Z,49.30
2017-11-04T13:29:32.527Z,44.03
2017-11-04T13:31:59.671Z,42.40
2017-11-04T13:34:26.415Z,44.57
2017-11-04T13:36:53.318Z,52.93
2017-11-04T13:39:20.403Z,42.83
2017-11-04T13:41:47.504Z,43.03
2017-11-04T13:44:14.299Z,47.37
2017-11-04T13:46:41.096Z,46.97
2017-11-04T13:49:07.879Z,44.40
2017-11-04T13:51:37.672Z,47.47
2017-11-04T13:54:04.526Z,44.00
2017-11-04T13:56:31.302Z,41.47
2017-11-04T14:01:33.195Z,40.03
2017-11-04T14:04:01.126Z,42.03
2017-11-04T14:06:28.796Z,42.63
2017-11-04T14:08:55.744Z,39.27
2017-11-04T14:11:26.888Z,36.57
2017-11-04T14:13:55.449Z,39.33
2017-11-04T14:16:22.422Z,46.20
2017-11-04T14:18:49.186Z,40.80
2017-11-04T14:21:15.984Z,35.40
2017-11-04T14:23:44.380Z,38.90
2017-11-04T14:26:12.131Z,42.87
2017-11-04T14:28:40.020Z,42.07
2017-11-04T14:31:06.852Z,49.07
2017-11-04T14:33:37.354Z,43.20
2017-11-04T14:36:04.236Z,37.33
2017-11-04T14:38:31.013Z,44.13
2017-11-04T14:41:09.035Z,38.83
2017-11-04T14:43:35.789Z,47.27
2017-11-04T14:46:06.868Z,41.20
2017-11-04T14:48:45.365Z,50.37
2017-11-04T14:51:12.163Z,44.87
2017-11-04T14:53:39.541Z,49.17
2017-11-04T14:56:07.533Z,43.17
2017-11-04T14:58:34.634Z,40.67
2017-11-04T15:01:01.447Z,47.53
2017-11-04T15:03:28.359Z,39.37
2017-11-04T15:05:55.253Z,39.97
2017-11-04T15:08:24.107Z,45.13
2017-11-04T15:10:51.471Z,35.13
2017-11-04T15:13:18.261Z,41.67
2017-11-04T15:15:45.041Z,46.60
2017-11-04T15:18:11.899Z,53.60
2017-11-04T15:20:49.170Z,48.10
2017-11-04T15:23:15.997Z,42.40
2017-11-04T15:25:42.791Z,46.80
2017-11-04T15:28:09.624Z,39.73
2017-11-04T15:30:36.444Z,43.33
2017-11-04T15:33:03.266Z,40.87
2017-11-04T15:35:30.086Z,42.10
2017-11-04T15:37:56.952Z,37.47
2017-11-04T15:40:23.821Z,43.47
2017-11-04T15:42:50.588Z,41.77
2017-11-04T15:45:17.416Z,33.40
2017-11-04T15:47:44.248Z,37.17
2017-11-04T15:50:11.042Z,42.00
2017-11-04T15:52:37.879Z,41.80
2017-11-04T15:55:04.686Z,36.57
2017-11-04T15:57:32.946Z,46.23
2017-11-04T15:59:59.802Z,45.43
2017-11-04T16:02:26.691Z,38.13
2017-11-04T16:04:53.486Z,41.97
2017-11-04T16:07:20.324Z,39.87
2017-11-04T16:09:47.152Z,44.60
2017-11-04T16:12:13.913Z,40.90
2017-11-04T16:14:40.720Z,42.30
2017-11-04T16:17:07.496Z,33.03
2017-11-04T16:19:34.301Z,38.00
2017-11-04T16:22:01.096Z,38.97
2017-11-04T16:24:27.946Z,41.83
2017-11-04T16:26:54.725Z,36.03
2017-11-04T16:29:21.539Z,38.93
2017-11-04T16:31:48.349Z,43.13
2017-11-04T16:34:15.150Z,37.97
2017-11-04T16:36:41.969Z,42.27
2017-11-04T16:39:08.735Z,36.63
2017-11-04T16:41:35.510Z,36.77
2017-11-04T16:44:02.350Z,40.00
2017-11-04T16:46:29.140Z,33.90
2017-11-04T16:48:55.930Z,35.50
2017-11-04T16:51:22.866Z,39.50
2017-11-04T16:53:49.697Z,39.13
2017-11-04T16:56:16.498Z,36.80
2017-11-04T16:58:43.315Z,41.00
2017-11-04T17:01:10.087Z,45.80
2017-11-04T17:03:36.894Z,40.60
2017-11-04T17:06:03.740Z,43.43
2017-11-04T17:08:30.510Z,43.30
2017-11-04T17:10:57.284Z,42.20
2017-11-04T17:13:24.107Z,38.83
2017-11-04T17:15:50.885Z,39.73
2017-11-04T17:18:17.656Z,45.93
2017-11-04T17:20:44.506Z,41.83
2017-11-04T17:23:11.357Z,39.73
2017-11-04T17:25:38.226Z,45.80
2017-11-04T17:28:05.060Z,46.10
2017-11-04T17:30:31.890Z,47.57
2017-11-04T17:32:58.730Z,41.70
2017-11-04T17:35:25.527Z,50.60
2017-11-04T17:37:52.313Z,44.83
2017-11-04T17:40:19.102Z,46.40
2017-11-04T17:42:45.888Z,47.80
2017-11-04T17:45:12.638Z,48.80
2017-11-04T17:47:39.482Z,49.17
2017-11-04T17:50:06.309Z,58.53
2017-11-04T17:52:33.074Z,52.27
2017-11-04T17:54:59.883Z,53.17
2017-11-04T17:57:26.735Z,47.50
2017-11-04T17:59:53.517Z,45.23
2017-11-04T18:02:20.307Z,46.50
2017-11-04T18:04:47.124Z,50.47
2017-11-04T18:07:13.905Z,47.87
2017-11-04T18:09:40.710Z,52.67
2017-11-04T18:12:07.541Z,57.20
2017-11-04T18:14:34.330Z,50.67
2017-11-04T18:17:01.098Z,50.47
2017-11-04T18:19:27.965Z,53.97
2017-11-04T18:21:54.779Z,52.43
2017-11-04T18:24:21.555Z,49.90
2017-11-04T18:26:48.377Z,50.40
2017-11-04T18:29:15.198Z,48.83
2017-11-04T18:31:42.032Z,50.37
2017-11-04T18:34:08.838Z,51.03
2017-11-04T18:36:35.722Z,45.27
2017-11-04T18:39:02.543Z,53.37
2017-11-04T18:41:29.396Z,55.13
2017-11-04T18:43:56.201Z,49.10
2017-11-04T18:46:23.091Z,53.90
2017-11-04T18:48:49.977Z,50.10
2017-11-04T18:51:16.823Z,59.07
2017-11-04T18:53:43.622Z,55.77
2017-11-04T18:56:10.456Z,51.50
2017-11-04T18:58:37.242Z,50.77
2017-11-04T19:01:04.191Z,53.03
2017-11-04T19:03:31.090Z,49.93
2017-11-04T19:05:57.919Z,51.57
2017-11-04T19:08:24.743Z,51.13
2017-11-04T19:10:51.586Z,55.83
2017-11-04T19:13:19.417Z,47.07
2017-11-04T19:15:46.238Z,42.13
2017-11-04T19:18:13.075Z,60.20
2017-11-04T19:20:40.277Z,48.63
2017-11-04T19:23:07.125Z,53.87
2017-11-04T19:25:33.937Z,49.43
2017-11-04T19:28:00.744Z,48.17
2017-11-04T19:30:27.566Z,44.27
2017-11-04T19:32:54.440Z,50.60
2017-11-04T19:35:21.229Z,41.37
2017-11-04T19:37:48.060Z,41.30
2017-11-04T19:40:14.865Z,48.10
2017-11-04T19:42:41.655Z,47.87
2017-11-04T19:45:08.456Z,56.00
2017-11-04T19:47:35.302Z,49.57
2017-11-04T19:50:02.056Z,41.93
2017-11-04T19:52:28.895Z,46.80
2017-11-04T19:54:55.742Z,49.00
2017-11-04T19:57:22.529Z,48.93
2017-11-04T19:59:49.489Z,44.17
2017-11-04T20:02:16.293Z,42.03
2017-11-04T20:04:43.202Z,45.80
2017-11-04T20:07:09.997Z,39.17
2017-11-04T20:09:36.903Z,44.47
2017-11-04T20:12:03.737Z,44.13
2017-11-04T20:14:30.568Z,42.90
2017-11-04T20:16:57.411Z,41.93
2017-11-04T20:19:24.240Z,46.40
2017-11-04T20:21:51.089Z,38.93
2017-11-04T20:24:17.998Z,47.90
2017-11-04T20:26:44.761Z,39.67
2017-11-04T20:29:11.628Z,54.55
2017-11-04T20:31:38.572Z,42.40
2017-11-04T20:34:05.357Z,50.80
2017-11-04T20:36:32.241Z,54.67
2017-11-04T20:39:11.020Z,40.77
2017-11-04T20:41:37.964Z,44.70
2017-11-04T20:44:04.734Z,43.85
2017-11-04T20:46:31.600Z,52.57
2017-11-04T20:48:59.075Z,55.77
2017-11-04T20:51:26.169Z,46.70
2017-11-04T20:53:54.351Z,42.30
2017-11-04T20:56:21.191Z,40.17
2017-11-04T20:58:52.128Z,44.33
2017-11-04T21:01:19.443Z,43.53
2017-11-04T21:03:46.584Z,40.77
2017-11-04T21:06:15.858Z,42.20
2017-11-04T21:08:42.742Z,46.43
2017-11-04T21:11:09.526Z,43.17
2017-11-04T21:13:38.450Z,45.20
2017-11-04T21:16:05.322Z,48.10
2017-11-04T21:18:33.346Z,39.57
2017-11-04T21:21:00.351Z,43.80
2017-11-04T21:23:27.236Z,43.00
2017-11-04T21:25:54.110Z,43.63
2017-11-04T21:28:20.991Z,41.93
2017-11-04T21:30:48.392Z,42.53
2017-11-04T21:33:15.201Z,41.30
2017-11-04T21:35:42.038Z,47.37
2017-11-04T21:38:08.869Z,41.67
2017-11-04T21:40:35.848Z,36.60
2017-11-04T21:43:03.795Z,43.27
2017-11-04T21:45:31.827Z,33.50
2017-11-04T21:47:58.718Z,37.60
2017-11-04T21:50:25.501Z,42.20
2017-11-04T21:52:52.316Z,44.90
2017-11-04T21:55:19.133Z,34.73
2017-11-04T21:57:45.986Z,34.73
2017-11-04T22:00:12.970Z,30.80
2017-11-04T22:02:39.765Z,36.93
2017-11-04T22:05:06.600Z,34.93
2017-11-04T22:07:33.391Z,40.13
2017-11-04T22:10:00.180Z,35.37
2017-11-04T22:12:26.923Z,35.97
2017-11-04T22:14:53.745Z,34.60
2017-11-04T22:17:20.539Z,41.47
2017-11-04T22:19:47.337Z,33.93
2017-11-04T22:22:14.151Z,39.47
2017-11-04T22:24:40.908Z,32.67
2017-11-04T22:27:07.683Z,37.10
2017-11-04T22:29:34.512Z,32.90
2017-11-04T22:32:01.303Z,38.77
2017-11-04T22:34:28.111Z,36.87
2017-11-04T22:36:54.899Z,41.13
2017-11-04T22:39:21.722Z,34.37
2017-11-04T22:41:48.506Z,37.30
2017-11-04T22:44:15.322Z,35.90
2017-11-04T22:46:42.129Z,35.07
2017-11-04T22:49:08.890Z,34.60
2017-11-04T22:51:35.717Z,37.17
2017-11-04T22:54:02.498Z,36.10
2017-11-04T22:56:29.285Z,39.90
2017-11-04T22:58:56.162Z,34.93
2017-11-04T23:01:22.975Z,37.13
2017-11-04T23:03:49.748Z,38.83
2017-11-04T23:06:16.635Z,34.53
2017-11-04T23:08:43.414Z,40.20
2017-11-04T23:11:10.339Z,33.57
